sensor_id;sensor_type;location;lat;lon;timestamp;P1;durP1;ratioP1;P2;durP2;ratioP2
11911;SDS011;6016;41.928;25.556;2022-12-18T00:00:43;53.50;;;23.67;;
11911;SDS011;6016;41.928;25.556;2022-12-18T00:03:13;48.67;;;22.77;;
11911;SDS011;6016;41.928;25.556;2022-12-18T00:05:45;46.25;;;22.02;;
11911;SDS011;6016;41.928;25.556;2022-12-18T00:08:13;48.88;;;22.38;;
11911;SDS011;6016;41.928;25.556;2022-12-18T00:10:41;56.17;;;26.23;;
11911;SDS011;6016;41.928;25.556;2022-12-18T00:13:08;99.10;;;39.83;;
11911;SDS011;6016;41.928;25.556;2022-12-18T00:15:35;80.40;;;31.35;;
11911;SDS011;6016;41.928;25.556;2022-12-18T00:18:02;76.97;;;30.23;;
11911;SDS011;6016;41.928;25.556;2022-12-18T00:20:31;67.10;;;26.17;;
11911;SDS011;6016;41.928;25.556;2022-12-18T00:23:01;67.15;;;25.83;;
11911;SDS011;6016;41.928;25.556;2022-12-18T00:25:28;62.60;;;26.33;;
11911;SDS011;6016;41.928;25.556;2022-12-18T00:27:55;57.88;;;24.48;;
11911;SDS011;6016;41.928;25.556;2022-12-18T00:30:22;44.00;;;19.95;;
11911;SDS011;6016;41.928;25.556;2022-12-18T00:32:48;45.83;;;20.67;;
11911;SDS011;6016;41.928;25.556;2022-12-18T00:35:15;43.88;;;20.42;;
11911;SDS011;6016;41.928;25.556;2022-12-18T00:37:44;50.58;;;23.45;;
11911;SDS011;6016;41.928;25.556;2022-12-18T00:40:11;53.90;;;22.50;;
11911;SDS011;6016;41.928;25.556;2022-12-18T00:42:38;48.75;;;22.52;;
11911;SDS011;6016;41.928;25.556;2022-12-18T00:45:22;52.05;;;23.05;;
11911;SDS011;6016;41.928;25.556;2022-12-18T00:47:50;49.42;;;23.00;;
11911;SDS011;6016;41.928;25.556;2022-12-18T00:50:17;48.95;;;23.27;;
11911;SDS011;6016;41.928;25.556;2022-12-18T00:52:45;48.25;;;23.35;;
11911;SDS011;6016;41.928;25.556;2022-12-18T00:55:12;48.13;;;22.90;;
11911;SDS011;6016;41.928;25.556;2022-12-18T00:57:40;47.20;;;21.27;;
11911;SDS011;6016;41.928;25.556;2022-12-18T01:00:07;44.40;;;21.73;;
11911;SDS011;6016;41.928;25.556;2022-12-18T01:02:37;40.05;;;19.45;;
11911;SDS011;6016;41.928;25.556;2022-12-18T01:05:04;40.97;;;17.88;;
11911;SDS011;6016;41.928;25.556;2022-12-18T01:07:31;44.53;;;19.00;;
11911;SDS011;6016;41.928;25.556;2022-12-18T01:10:00;40.92;;;19.60;;
11911;SDS011;6016;41.928;25.556;2022-12-18T01:12:27;38.17;;;18.13;;
11911;SDS011;6016;41.928;25.556;2022-12-18T01:14:53;39.97;;;18.98;;
11911;SDS011;6016;41.928;25.556;2022-12-18T01:17:21;40.30;;;18.85;;
11911;SDS011;6016;41.928;25.556;2022-12-18T01:19:47;42.45;;;18.33;;
11911;SDS011;6016;41.928;25.556;2022-12-18T01:22:14;42.10;;;18.45;;
11911;SDS011;6016;41.928;25.556;2022-12-18T01:24:41;39.50;;;19.17;;
11911;SDS011;6016;41.928;25.556;2022-12-18T01:27:09;42.15;;;19.80;;
11911;SDS011;6016;41.928;25.556;2022-12-18T01:29:36;41.88;;;18.42;;
11911;SDS011;6016;41.928;25.556;2022-12-18T01:32:03;40.22;;;18.80;;
11911;SDS011;6016;41.928;25.556;2022-12-18T01:34:30;38.90;;;18.92;;
11911;SDS011;6016;41.928;25.556;2022-12-18T01:36:57;37.67;;;18.33;;
11911;SDS011;6016;41.928;25.556;2022-12-18T01:39:24;38.28;;;18.55;;
11911;SDS011;6016;41.928;25.556;2022-12-18T01:41:51;38.50;;;17.55;;
11911;SDS011;6016;41.928;25.556;2022-12-18T01:44:52;49.15;;;22.08;;
11911;SDS011;6016;41.928;25.556;2022-12-18T01:47:48;50.60;;;24.13;;
11911;SDS011;6016;41.928;25.556;2022-12-18T01:50:19;47.33;;;22.65;;
11911;SDS011;6016;41.928;25.556;2022-12-18T01:52:49;49.35;;;23.02;;
11911;SDS011;6016;41.928;25.556;2022-12-18T01:55:20;44.28;;;20.67;;
11911;SDS011;6016;41.928;25.556;2022-12-18T01:57:49;39.85;;;20.25;;
11911;SDS011;6016;41.928;25.556;2022-12-18T02:00:22;42.25;;;19.80;;
11911;SDS011;6016;41.928;25.556;2022-12-18T02:02:50;45.60;;;20.75;;
11911;SDS011;6016;41.928;25.556;2022-12-18T02:05:17;40.85;;;19.80;;
11911;SDS011;6016;41.928;25.556;2022-12-18T02:07:54;42.35;;;20.55;;
11911;SDS011;6016;41.928;25.556;2022-12-18T02:10:30;38.95;;;18.58;;
11911;SDS011;6016;41.928;25.556;2022-12-18T02:13:02;38.63;;;18.10;;
11911;SDS011;6016;41.928;25.556;2022-12-18T02:15:40;34.45;;;16.52;;
11911;SDS011;6016;41.928;25.556;2022-12-18T02:18:12;37.47;;;17.42;;
11911;SDS011;6016;41.928;25.556;2022-12-18T02:20:45;36.78;;;17.30;;
11911;SDS011;6016;41.928;25.556;2022-12-18T02:23:19;32.28;;;15.88;;
11911;SDS011;6016;41.928;25.556;2022-12-18T02:26:07;33.65;;;15.88;;
11911;SDS011;6016;41.928;25.556;2022-12-18T02:28:45;34.28;;;17.00;;
11911;SDS011;6016;41.928;25.556;2022-12-18T02:31:16;32.72;;;15.85;;
11911;SDS011;6016;41.928;25.556;2022-12-18T02:33:52;36.17;;;16.15;;
11911;SDS011;6016;41.928;25.556;2022-12-18T02:36:24;33.92;;;16.33;;
11911;SDS011;6016;41.928;25.556;2022-12-18T02:38:53;33.28;;;16.15;;
11911;SDS011;6016;41.928;25.556;2022-12-18T02:41:24;35.50;;;16.58;;
11911;SDS011;6016;41.928;25.556;2022-12-18T02:43:53;35.67;;;16.08;;
11911;SDS011;6016;41.928;25.556;2022-12-18T02:46:27;31.30;;;15.60;;
11911;SDS011;6016;41.928;25.556;2022-12-18T02:48:59;32.25;;;14.98;;
11911;SDS011;6016;41.928;25.556;2022-12-18T02:51:35;37.05;;;16.63;;
11911;SDS011;6016;41.928;25.556;2022-12-18T02:54:10;31.85;;;16.17;;
11911;SDS011;6016;41.928;25.556;2022-12-18T02:56:50;33.40;;;15.20;;
11911;SDS011;6016;41.928;25.556;2022-12-18T02:59:21;41.28;;;17.13;;
11911;SDS011;6016;41.928;25.556;2022-12-18T03:01:56;40.22;;;19.85;;
11911;SDS011;6016;41.928;25.556;2022-12-18T03:04:29;36.50;;;18.10;;
11911;SDS011;6016;41.928;25.556;2022-12-18T03:07:03;36.97;;;17.02;;
11911;SDS011;6016;41.928;25.556;2022-12-18T03:09:41;37.25;;;18.23;;
11911;SDS011;6016;41.928;25.556;2022-12-18T03:12:14;39.10;;;17.52;;
11911;SDS011;6016;41.928;25.556;2022-12-18T03:14:52;36.63;;;18.02;;
11911;SDS011;6016;41.928;25.556;2022-12-18T03:17:25;37.55;;;17.20;;
11911;SDS011;6016;41.928;25.556;2022-12-18T03:19:54;39.15;;;18.10;;
11911;SDS011;6016;41.928;25.556;2022-12-18T03:22:24;36.42;;;16.98;;
11911;SDS011;6016;41.928;25.556;2022-12-18T03:24:56;37.57;;;17.50;;
11911;SDS011;6016;41.928;25.556;2022-12-18T03:27:26;44.83;;;23.48;;
11911;SDS011;6016;41.928;25.556;2022-12-18T03:29:59;79.80;;;52.20;;
11911;SDS011;6016;41.928;25.556;2022-12-18T03:32:33;46.47;;;25.05;;
11911;SDS011;6016;41.928;25.556;2022-12-18T03:35:06;53.20;;;26.55;;
11911;SDS011;6016;41.928;25.556;2022-12-18T03:37:36;41.63;;;21.38;;
11911;SDS011;6016;41.928;25.556;2022-12-18T03:40:05;41.92;;;21.25;;
11911;SDS011;6016;41.928;25.556;2022-12-18T03:42:36;48.85;;;22.67;;
11911;SDS011;6016;41.928;25.556;2022-12-18T03:45:11;44.00;;;22.83;;
11911;SDS011;6016;41.928;25.556;2022-12-18T03:47:46;40.17;;;20.02;;
11911;SDS011;6016;41.928;25.556;2022-12-18T03:50:27;41.03;;;19.90;;
11911;SDS011;6016;41.928;25.556;2022-12-18T03:53:02;42.20;;;21.98;;
11911;SDS011;6016;41.928;25.556;2022-12-18T03:55:39;45.97;;;20.80;;
11911;SDS011;6016;41.928;25.556;2022-12-18T03:58:09;59.67;;;31.42;;
11911;SDS011;6016;41.928;25.556;2022-12-18T04:00:42;48.35;;;24.90;;
11911;SDS011;6016;41.928;25.556;2022-12-18T04:03:10;45.40;;;22.17;;
11911;SDS011;6016;41.928;25.556;2022-12-18T04:05:38;43.72;;;20.08;;
11911;SDS011;6016;41.928;25.556;2022-12-18T04:08:08;46.97;;;21.77;;
11911;SDS011;6016;41.928;25.556;2022-12-18T04:10:35;44.85;;;22.80;;
11911;SDS011;6016;41.928;25.556;2022-12-18T04:13:02;49.50;;;22.75;;
11911;SDS011;6016;41.928;25.556;2022-12-18T04:15:30;38.42;;;19.05;;
11911;SDS011;6016;41.928;25.556;2022-12-18T04:18:00;69.20;;;31.50;;
11911;SDS011;6016;41.928;25.556;2022-12-18T04:20:28;48.45;;;22.95;;
11911;SDS011;6016;41.928;25.556;2022-12-18T04:22:55;48.08;;;22.88;;
11911;SDS011;6016;41.928;25.556;2022-12-18T04:25:22;47.40;;;22.42;;
11911;SDS011;6016;41.928;25.556;2022-12-18T04:27:48;52.75;;;24.27;;
11911;SDS011;6016;41.928;25.556;2022-12-18T04:30:15;48.22;;;21.48;;
11911;SDS011;6016;41.928;25.556;2022-12-18T04:32:44;57.00;;;23.45;;
11911;SDS011;6016;41.928;25.556;2022-12-18T04:35:10;70.72;;;28.13;;
11911;SDS011;6016;41.928;25.556;2022-12-18T04:37:37;51.97;;;22.35;;
11911;SDS011;6016;41.928;25.556;2022-12-18T04:40:04;124.82;;;44.47;;
11911;SDS011;6016;41.928;25.556;2022-12-18T04:42:32;77.97;;;29.63;;
11911;SDS011;6016;41.928;25.556;2022-12-18T04:44:59;49.92;;;22.20;;
11911;SDS011;6016;41.928;25.556;2022-12-18T04:47:26;61.33;;;26.33;;
11911;SDS011;6016;41.928;25.556;2022-12-18T04:49:54;63.50;;;25.42;;
11911;SDS011;6016;41.928;25.556;2022-12-18T04:52:20;45.28;;;20.52;;
11911;SDS011;6016;41.928;25.556;2022-12-18T04:54:47;38.88;;;18.77;;
11911;SDS011;6016;41.928;25.556;2022-12-18T04:57:14;35.78;;;17.98;;
11911;SDS011;6016;41.928;25.556;2022-12-18T04:59:46;40.38;;;18.75;;
11911;SDS011;6016;41.928;25.556;2022-12-18T05:02:13;42.38;;;19.02;;
11911;SDS011;6016;41.928;25.556;2022-12-18T05:04:40;40.05;;;18.13;;
11911;SDS011;6016;41.928;25.556;2022-12-18T05:07:08;41.38;;;18.23;;
11911;SDS011;6016;41.928;25.556;2022-12-18T05:09:35;44.72;;;20.92;;
11911;SDS011;6016;41.928;25.556;2022-12-18T05:12:02;47.17;;;20.58;;
11911;SDS011;6016;41.928;25.556;2022-12-18T05:14:29;45.83;;;21.33;;
11911;SDS011;6016;41.928;25.556;2022-12-18T05:16:56;38.65;;;20.50;;
11911;SDS011;6016;41.928;25.556;2022-12-18T05:19:23;43.70;;;21.23;;
11911;SDS011;6016;41.928;25.556;2022-12-18T05:21:49;43.15;;;22.63;;
11911;SDS011;6016;41.928;25.556;2022-12-18T05:24:17;42.80;;;20.63;;
11911;SDS011;6016;41.928;25.556;2022-12-18T05:26:44;44.10;;;19.95;;
11911;SDS011;6016;41.928;25.556;2022-12-18T05:29:11;42.28;;;20.42;;
11911;SDS011;6016;41.928;25.556;2022-12-18T05:31:38;43.17;;;20.05;;
11911;SDS011;6016;41.928;25.556;2022-12-18T05:34:05;41.88;;;20.17;;
11911;SDS011;6016;41.928;25.556;2022-12-18T05:36:32;41.63;;;20.08;;
11911;SDS011;6016;41.928;25.556;2022-12-18T05:38:59;41.05;;;19.95;;
11911;SDS011;6016;41.928;25.556;2022-12-18T05:41:27;40.20;;;19.35;;
11911;SDS011;6016;41.928;25.556;2022-12-18T05:43:54;50.40;;;23.83;;
11911;SDS011;6016;41.928;25.556;2022-12-18T05:46:21;45.15;;;20.45;;
11911;SDS011;6016;41.928;25.556;2022-12-18T05:48:49;49.55;;;23.42;;
11911;SDS011;6016;41.928;25.556;2022-12-18T05:51:17;50.95;;;23.90;;
11911;SDS011;6016;41.928;25.556;2022-12-18T05:53:46;55.00;;;25.45;;
11911;SDS011;6016;41.928;25.556;2022-12-18T05:56:14;51.42;;;23.20;;
11911;SDS011;6016;41.928;25.556;2022-12-18T05:58:44;51.22;;;24.35;;
11911;SDS011;6016;41.928;25.556;2022-12-18T06:01:11;51.65;;;25.65;;
11911;SDS011;6016;41.928;25.556;2022-12-18T06:03:39;61.13;;;32.65;;
11911;SDS011;6016;41.928;25.556;2022-12-18T06:06:12;54.83;;;28.92;;
11911;SDS011;6016;41.928;25.556;2022-12-18T06:08:40;47.45;;;22.77;;
11911;SDS011;6016;41.928;25.556;2022-12-18T06:11:07;47.47;;;23.92;;
11911;SDS011;6016;41.928;25.556;2022-12-18T06:13:36;44.97;;;21.63;;
11911;SDS011;6016;41.928;25.556;2022-12-18T06:16:05;42.05;;;20.77;;
11911;SDS011;6016;41.928;25.556;2022-12-18T06:18:33;41.60;;;20.55;;
11911;SDS011;6016;41.928;25.556;2022-12-18T06:21:02;41.38;;;20.70;;
11911;SDS011;6016;41.928;25.556;2022-12-18T06:23:29;44.40;;;21.00;;
11911;SDS011;6016;41.928;25.556;2022-12-18T06:25:56;39.42;;;19.38;;
11911;SDS011;6016;41.928;25.556;2022-12-18T06:28:23;35.13;;;17.08;;
11911;SDS011;6016;41.928;25.556;2022-12-18T06:30:50;35.20;;;17.05;;
11911;SDS011;6016;41.928;25.556;2022-12-18T06:33:19;37.33;;;17.13;;
11911;SDS011;6016;41.928;25.556;2022-12-18T06:35:46;36.00;;;17.40;;
11911;SDS011;6016;41.928;25.556;2022-12-18T06:38:13;33.13;;;16.45;;
11911;SDS011;6016;41.928;25.556;2022-12-18T06:40:40;34.15;;;17.40;;
11911;SDS011;6016;41.928;25.556;2022-12-18T06:43:06;32.30;;;14.73;;
11911;SDS011;6016;41.928;25.556;2022-12-18T06:45:34;32.50;;;16.63;;
11911;SDS011;6016;41.928;25.556;2022-12-18T06:48:00;29.17;;;16.20;;
11911;SDS011;6016;41.928;25.556;2022-12-18T06:50:29;25.35;;;13.65;;
11911;SDS011;6016;41.928;25.556;2022-12-18T06:52:56;26.08;;;12.70;;
11911;SDS011;6016;41.928;25.556;2022-12-18T06:55:23;22.02;;;11.48;;
11911;SDS011;6016;41.928;25.556;2022-12-18T06:57:49;21.92;;;12.75;;
11911;SDS011;6016;41.928;25.556;2022-12-18T07:00:16;26.55;;;12.98;;
11911;SDS011;6016;41.928;25.556;2022-12-18T07:02:44;21.88;;;11.40;;
11911;SDS011;6016;41.928;25.556;2022-12-18T07:05:11;21.48;;;10.70;;
11911;SDS011;6016;41.928;25.556;2022-12-18T07:07:39;19.55;;;10.20;;
11911;SDS011;6016;41.928;25.556;2022-12-18T07:10:06;21.20;;;11.13;;
11911;SDS011;6016;41.928;25.556;2022-12-18T07:12:33;15.13;;;8.45;;
11911;SDS011;6016;41.928;25.556;2022-12-18T07:15:00;14.70;;;8.20;;
11911;SDS011;6016;41.928;25.556;2022-12-18T07:17:27;13.48;;;8.25;;
11911;SDS011;6016;41.928;25.556;2022-12-18T07:19:54;10.32;;;6.68;;
11911;SDS011;6016;41.928;25.556;2022-12-18T07:22:21;12.10;;;6.72;;
11911;SDS011;6016;41.928;25.556;2022-12-18T07:24:49;12.88;;;6.78;;
11911;SDS011;6016;41.928;25.556;2022-12-18T07:27:16;12.55;;;7.18;;
11911;SDS011;6016;41.928;25.556;2022-12-18T07:29:43;17.45;;;8.00;;
11911;SDS011;6016;41.928;25.556;2022-12-18T07:32:10;14.38;;;7.43;;
11911;SDS011;6016;41.928;25.556;2022-12-18T07:34:37;29.48;;;17.65;;
11911;SDS011;6016;41.928;25.556;2022-12-18T07:37:04;18.20;;;11.82;;
11911;SDS011;6016;41.928;25.556;2022-12-18T07:39:30;14.43;;;8.23;;
11911;SDS011;6016;41.928;25.556;2022-12-18T07:41:59;16.65;;;9.98;;
11911;SDS011;6016;41.928;25.556;2022-12-18T07:44:43;21.10;;;10.52;;
11911;SDS011;6016;41.928;25.556;2022-12-18T07:47:10;16.75;;;9.57;;
11911;SDS011;6016;41.928;25.556;2022-12-18T07:49:37;16.98;;;9.40;;
11911;SDS011;6016;41.928;25.556;2022-12-18T07:52:03;17.73;;;9.27;;
11911;SDS011;6016;41.928;25.556;2022-12-18T07:54:30;14.60;;;8.70;;
11911;SDS011;6016;41.928;25.556;2022-12-18T07:56:59;16.70;;;9.15;;
11911;SDS011;6016;41.928;25.556;2022-12-18T07:59:26;20.20;;;10.75;;
11911;SDS011;6016;41.928;25.556;2022-12-18T08:01:53;18.48;;;9.98;;
11911;SDS011;6016;41.928;25.556;2022-12-18T08:04:19;20.77;;;11.25;;
11911;SDS011;6016;41.928;25.556;2022-12-18T08:06:46;25.58;;;11.80;;
11911;SDS011;6016;41.928;25.556;2022-12-18T08:09:13;26.92;;;12.07;;
11911;SDS011;6016;41.928;25.556;2022-12-18T08:11:40;27.70;;;13.82;;
11911;SDS011;6016;41.928;25.556;2022-12-18T08:14:08;27.60;;;12.65;;
11911;SDS011;6016;41.928;25.556;2022-12-18T08:16:36;38.35;;;16.70;;
11911;SDS011;6016;41.928;25.556;2022-12-18T08:19:03;20.85;;;10.82;;
11911;SDS011;6016;41.928;25.556;2022-12-18T08:21:30;23.45;;;11.48;;
11911;SDS011;6016;41.928;25.556;2022-12-18T08:24:00;22.35;;;11.02;;
11911;SDS011;6016;41.928;25.556;2022-12-18T08:26:28;22.92;;;11.70;;
11911;SDS011;6016;41.928;25.556;2022-12-18T08:28:57;18.10;;;9.38;;
11911;SDS011;6016;41.928;25.556;2022-12-18T08:31:30;15.18;;;8.38;;
11911;SDS011;6016;41.928;25.556;2022-12-18T08:33:58;19.52;;;8.60;;
11911;SDS011;6016;41.928;25.556;2022-12-18T08:36:25;15.98;;;8.93;;
11911;SDS011;6016;41.928;25.556;2022-12-18T08:38:52;15.63;;;8.77;;
11911;SDS011;6016;41.928;25.556;2022-12-18T08:41:19;22.45;;;10.65;;
11911;SDS011;6016;41.928;25.556;2022-12-18T08:43:46;26.02;;;13.27;;
11911;SDS011;6016;41.928;25.556;2022-12-18T08:46:34;20.65;;;9.80;;
11911;SDS011;6016;41.928;25.556;2022-12-18T08:49:02;25.00;;;12.90;;
11911;SDS011;6016;41.928;25.556;2022-12-18T08:51:29;17.17;;;9.10;;
11911;SDS011;6016;41.928;25.556;2022-12-18T08:53:56;16.88;;;9.95;;
11911;SDS011;6016;41.928;25.556;2022-12-18T08:56:23;19.45;;;10.02;;
11911;SDS011;6016;41.928;25.556;2022-12-18T08:58:51;16.85;;;10.23;;
11911;SDS011;6016;41.928;25.556;2022-12-18T09:01:19;25.92;;;15.45;;
11911;SDS011;6016;41.928;25.556;2022-12-18T09:03:47;21.33;;;12.18;;
11911;SDS011;6016;41.928;25.556;2022-12-18T09:06:15;24.05;;;11.38;;
11911;SDS011;6016;41.928;25.556;2022-12-18T09:08:45;21.40;;;11.68;;
11911;SDS011;6016;41.928;25.556;2022-12-18T09:11:13;33.90;;;18.25;;
11911;SDS011;6016;41.928;25.556;2022-12-18T09:13:43;39.17;;;21.47;;
11911;SDS011;6016;41.928;25.556;2022-12-18T09:16:11;24.52;;;11.63;;
11911;SDS011;6016;41.928;25.556;2022-12-18T09:18:38;23.02;;;11.48;;
11911;SDS011;6016;41.928;25.556;2022-12-18T09:21:10;31.67;;;13.85;;
11911;SDS011;6016;41.928;25.556;2022-12-18T09:23:38;36.30;;;15.70;;
11911;SDS011;6016;41.928;25.556;2022-12-18T09:26:07;37.88;;;16.10;;
11911;SDS011;6016;41.928;25.556;2022-12-18T09:28:34;34.13;;;13.40;;
11911;SDS011;6016;41.928;25.556;2022-12-18T09:31:03;28.05;;;12.90;;
11911;SDS011;6016;41.928;25.556;2022-12-18T09:33:32;33.55;;;15.52;;
11911;SDS011;6016;41.928;25.556;2022-12-18T09:36:00;37.33;;;14.90;;
11911;SDS011;6016;41.928;25.556;2022-12-18T09:38:29;36.15;;;18.63;;
11911;SDS011;6016;41.928;25.556;2022-12-18T09:40:57;37.05;;;15.88;;
11911;SDS011;6016;41.928;25.556;2022-12-18T09:43:33;21.75;;;11.23;;
11911;SDS011;6016;41.928;25.556;2022-12-18T09:46:08;28.17;;;15.32;;
11911;SDS011;6016;41.928;25.556;2022-12-18T09:48:39;27.40;;;14.88;;
11911;SDS011;6016;41.928;25.556;2022-12-18T09:51:15;19.65;;;9.95;;
11911;SDS011;6016;41.928;25.556;2022-12-18T09:53:50;46.53;;;18.90;;
11911;SDS011;6016;41.928;25.556;2022-12-18T09:56:20;46.40;;;17.23;;
11911;SDS011;6016;41.928;25.556;2022-12-18T09:58:52;34.92;;;15.10;;
11911;SDS011;6016;41.928;25.556;2022-12-18T10:01:24;25.17;;;12.23;;
11911;SDS011;6016;41.928;25.556;2022-12-18T10:03:52;24.58;;;12.73;;
11911;SDS011;6016;41.928;25.556;2022-12-18T10:06:21;31.85;;;14.35;;
11911;SDS011;6016;41.928;25.556;2022-12-18T10:08:55;26.80;;;14.17;;
11911;SDS011;6016;41.928;25.556;2022-12-18T10:11:32;25.42;;;14.20;;
11911;SDS011;6016;41.928;25.556;2022-12-18T10:14:06;25.70;;;13.82;;
11911;SDS011;6016;41.928;25.556;2022-12-18T10:16:43;22.80;;;13.23;;
11911;SDS011;6016;41.928;25.556;2022-12-18T10:19:33;23.42;;;13.20;;
11911;SDS011;6016;41.928;25.556;2022-12-18T10:22:10;25.40;;;14.57;;
11911;SDS011;6016;41.928;25.556;2022-12-18T10:24:44;26.08;;;14.50;;
11911;SDS011;6016;41.928;25.556;2022-12-18T10:27:21;21.00;;;12.13;;
11911;SDS011;6016;41.928;25.556;2022-12-18T10:29:50;26.98;;;14.65;;
11911;SDS011;6016;41.928;25.556;2022-12-18T10:32:17;35.67;;;18.00;;
11911;SDS011;6016;41.928;25.556;2022-12-18T10:34:46;32.35;;;15.68;;
11911;SDS011;6016;41.928;25.556;2022-12-18T10:37:15;25.95;;;13.07;;
11911;SDS011;6016;41.928;25.556;2022-12-18T10:39:46;31.70;;;14.80;;
11911;SDS011;6016;41.928;25.556;2022-12-18T10:42:30;35.70;;;16.20;;
11911;SDS011;6016;41.928;25.556;2022-12-18T10:45:00;30.70;;;15.30;;
11911;SDS011;6016;41.928;25.556;2022-12-18T10:47:29;26.67;;;13.50;;
11911;SDS011;6016;41.928;25.556;2022-12-18T10:49:56;25.10;;;13.55;;
11911;SDS011;6016;41.928;25.556;2022-12-18T10:52:26;25.38;;;13.88;;
11911;SDS011;6016;41.928;25.556;2022-12-18T10:54:58;24.38;;;12.95;;
11911;SDS011;6016;41.928;25.556;2022-12-18T10:57:30;27.73;;;15.10;;
11911;SDS011;6016;41.928;25.556;2022-12-18T11:00:11;31.90;;;16.60;;
11911;SDS011;6016;41.928;25.556;2022-12-18T11:02:47;36.47;;;18.77;;
11911;SDS011;6016;41.928;25.556;2022-12-18T11:07:57;29.50;;;15.25;;
11911;SDS011;6016;41.928;25.556;2022-12-18T11:10:28;35.65;;;17.15;;
11911;SDS011;6016;41.928;25.556;2022-12-18T11:13:08;57.33;;;27.27;;
11911;SDS011;6016;41.928;25.556;2022-12-18T11:15:36;79.25;;;37.95;;
11911;SDS011;6016;41.928;25.556;2022-12-18T11:18:14;64.47;;;32.88;;
11911;SDS011;6016;41.928;25.556;2022-12-18T11:20:49;41.35;;;20.88;;
11911;SDS011;6016;41.928;25.556;2022-12-18T11:23:18;37.97;;;17.73;;
11911;SDS011;6016;41.928;25.556;2022-12-18T11:25:53;35.15;;;16.42;;
11911;SDS011;6016;41.928;25.556;2022-12-18T11:28:26;44.42;;;20.80;;
11911;SDS011;6016;41.928;25.556;2022-12-18T11:34:02;42.88;;;20.42;;
11911;SDS011;6016;41.928;25.556;2022-12-18T11:36:36;40.47;;;22.02;;
11911;SDS011;6016;41.928;25.556;2022-12-18T11:39:07;43.80;;;24.13;;
11911;SDS011;6016;41.928;25.556;2022-12-18T11:41:45;43.88;;;23.75;;
11911;SDS011;6016;41.928;25.556;2022-12-18T11:44:35;29.48;;;15.98;;
11911;SDS011;6016;41.928;25.556;2022-12-18T11:47:07;38.10;;;22.65;;
11911;SDS011;6016;41.928;25.556;2022-12-18T11:49:42;33.63;;;17.27;;
11911;SDS011;6016;41.928;25.556;2022-12-18T11:52:14;36.83;;;17.60;;
11911;SDS011;6016;41.928;25.556;2022-12-18T11:54:45;45.28;;;21.23;;
11911;SDS011;6016;41.928;25.556;2022-12-18T11:57:18;34.75;;;15.45;;
11911;SDS011;6016;41.928;25.556;2022-12-18T12:00:00;27.23;;;13.15;;
11911;SDS011;6016;41.928;25.556;2022-12-18T12:02:36;31.25;;;17.67;;
11911;SDS011;6016;41.928;25.556;2022-12-18T12:05:31;27.95;;;15.82;;
11911;SDS011;6016;41.928;25.556;2022-12-18T12:08:11;23.90;;;13.18;;
11911;SDS011;6016;41.928;25.556;2022-12-18T12:10:47;37.78;;;21.05;;
11911;SDS011;6016;41.928;25.556;2022-12-18T12:13:26;36.65;;;18.20;;
11911;SDS011;6016;41.928;25.556;2022-12-18T12:16:08;36.13;;;18.10;;
11911;SDS011;6016;41.928;25.556;2022-12-18T12:18:49;37.10;;;18.65;;
11911;SDS011;6016;41.928;25.556;2022-12-18T12:21:28;38.08;;;16.55;;
11911;SDS011;6016;41.928;25.556;2022-12-18T12:24:04;41.25;;;20.70;;
11911;SDS011;6016;41.928;25.556;2022-12-18T12:26:38;52.90;;;31.13;;
11911;SDS011;6016;41.928;25.556;2022-12-18T12:29:24;46.15;;;20.80;;
11911;SDS011;6016;41.928;25.556;2022-12-18T12:32:05;53.60;;;26.88;;
11911;SDS011;6016;41.928;25.556;2022-12-18T12:34:44;57.65;;;25.40;;
11911;SDS011;6016;41.928;25.556;2022-12-18T12:37:24;40.70;;;19.40;;
11911;SDS011;6016;41.928;25.556;2022-12-18T12:40:03;42.30;;;22.00;;
11911;SDS011;6016;41.928;25.556;2022-12-18T12:42:33;37.08;;;20.05;;
11911;SDS011;6016;41.928;25.556;2022-12-18T12:45:36;40.20;;;19.90;;
11911;SDS011;6016;41.928;25.556;2022-12-18T12:48:10;34.40;;;18.83;;
11911;SDS011;6016;41.928;25.556;2022-12-18T12:50:44;30.98;;;16.55;;
11911;SDS011;6016;41.928;25.556;2022-12-18T12:53:14;26.33;;;14.38;;
11911;SDS011;6016;41.928;25.556;2022-12-18T12:55:50;27.33;;;14.55;;
11911;SDS011;6016;41.928;25.556;2022-12-18T12:58:23;21.75;;;12.73;;
11911;SDS011;6016;41.928;25.556;2022-12-18T13:01:01;21.92;;;11.93;;
11911;SDS011;6016;41.928;25.556;2022-12-18T13:03:40;46.05;;;27.85;;
11911;SDS011;6016;41.928;25.556;2022-12-18T13:06:14;27.33;;;14.27;;
11911;SDS011;6016;41.928;25.556;2022-12-18T13:08:52;25.58;;;13.25;;
11911;SDS011;6016;41.928;25.556;2022-12-18T13:11:31;26.13;;;13.52;;
11911;SDS011;6016;41.928;25.556;2022-12-18T13:14:20;29.02;;;14.63;;
11911;SDS011;6016;41.928;25.556;2022-12-18T13:16:50;16.88;;;10.00;;
11911;SDS011;6016;41.928;25.556;2022-12-18T13:19:23;32.17;;;19.98;;
11911;SDS011;6016;41.928;25.556;2022-12-18T13:21:53;35.92;;;19.67;;
11911;SDS011;6016;41.928;25.556;2022-12-18T13:24:23;28.40;;;15.63;;
11911;SDS011;6016;41.928;25.556;2022-12-18T13:26:52;44.30;;;24.08;;
11911;SDS011;6016;41.928;25.556;2022-12-18T13:32:20;32.85;;;17.33;;
11911;SDS011;6016;41.928;25.556;2022-12-18T13:34:48;55.45;;;27.25;;
11911;SDS011;6016;41.928;25.556;2022-12-18T13:43:24;30.27;;;16.58;;
11911;SDS011;6016;41.928;25.556;2022-12-18T13:46:02;24.05;;;14.10;;
11911;SDS011;6016;41.928;25.556;2022-12-18T13:48:49;20.60;;;10.82;;
11911;SDS011;6016;41.928;25.556;2022-12-18T13:51:24;35.40;;;20.98;;
11911;SDS011;6016;41.928;25.556;2022-12-18T13:53:53;48.25;;;27.77;;
11911;SDS011;6016;41.928;25.556;2022-12-18T13:56:24;25.50;;;13.73;;
11911;SDS011;6016;41.928;25.556;2022-12-18T14:01:47;22.08;;;11.27;;
11911;SDS011;6016;41.928;25.556;2022-12-18T14:04:26;18.77;;;10.93;;
11911;SDS011;6016;41.928;25.556;2022-12-18T14:06:55;19.02;;;9.00;;
11911;SDS011;6016;41.928;25.556;2022-12-18T14:09:26;17.75;;;9.85;;
11911;SDS011;6016;41.928;25.556;2022-12-18T14:11:54;15.88;;;7.97;;
11911;SDS011;6016;41.928;25.556;2022-12-18T14:14:37;32.13;;;17.80;;
11911;SDS011;6016;41.928;25.556;2022-12-18T14:17:08;16.23;;;8.93;;
11911;SDS011;6016;41.928;25.556;2022-12-18T14:19:38;16.45;;;8.98;;
11911;SDS011;6016;41.928;25.556;2022-12-18T14:22:11;16.13;;;9.17;;
11911;SDS011;6016;41.928;25.556;2022-12-18T14:27:12;34.25;;;16.17;;
11911;SDS011;6016;41.928;25.556;2022-12-18T14:29:46;73.28;;;30.98;;
11911;SDS011;6016;41.928;25.556;2022-12-18T14:32:13;34.00;;;15.75;;
11911;SDS011;6016;41.928;25.556;2022-12-18T14:34:43;65.43;;;31.08;;
11911;SDS011;6016;41.928;25.556;2022-12-18T14:37:11;89.75;;;43.45;;
11911;SDS011;6016;41.928;25.556;2022-12-18T14:39:39;42.35;;;18.40;;
11911;SDS011;6016;41.928;25.556;2022-12-18T14:42:09;55.65;;;27.40;;
11911;SDS011;6016;41.928;25.556;2022-12-18T14:44:37;93.38;;;36.03;;
11911;SDS011;6016;41.928;25.556;2022-12-18T14:47:04;128.65;;;51.92;;
11911;SDS011;6016;41.928;25.556;2022-12-18T14:49:31;95.18;;;38.67;;
11911;SDS011;6016;41.928;25.556;2022-12-18T14:52:03;81.25;;;31.85;;
11911;SDS011;6016;41.928;25.556;2022-12-18T14:54:33;126.45;;;51.05;;
11911;SDS011;6016;41.928;25.556;2022-12-18T14:57:05;98.20;;;38.67;;
11911;SDS011;6016;41.928;25.556;2022-12-18T14:59:46;114.38;;;46.40;;
11911;SDS011;6016;41.928;25.556;2022-12-18T15:02:15;153.88;;;61.38;;
11911;SDS011;6016;41.928;25.556;2022-12-18T15:04:46;273.88;;;105.22;;